Aviation Digital Data Service (ADDS)

Output produced by METARs form (1324 UTC 23 May 2015)
found at http://aviationweather.gov/adds/metars/
 
KORF 231120Z 2312/2412 03012G18KT P6SM FEW250 
     FM231400 05010KT P6SM SKC 
     FM231700 VRB06KT P6SM SCT200